Time;durP1;ratioP1;P1;durP2;ratioP2;P2;SDS_P1;SDS_P2;PMS_P1;PMS_P2;Temp;Humidity;BMP_temperature;BMP_pressure;BME280_temperature;BME280_humidity;BME280_pressure;Samples;Min_cycle;Max_cycle;Signal;HPM_P1;HPM_P2
2023/04/06 00:01:50;;;;;;;6.83;4.67;;;7.00;99.90;;;;;;7390068;19;20143;-74
2023/04/06 00:04:16;;;;;;;9.27;5.33;;;6.90;99.90;;;;;;7390639;19;20233;-73
2023/04/06 00:06:42;;;;;;;8.90;5.30;;;6.90;99.90;;;;;;7390705;19;20226;-73
2023/04/06 00:09:08;;;;;;;8.70;5.47;;;6.90;99.90;;;;;;7389613;19;20154;-71
2023/04/06 00:11:34;;;;;;;7.77;4.90;;;6.90;99.90;;;;;;7389522;19;20154;-73
2023/04/06 00:14:00;;;;;;;8.47;5.57;;;6.90;99.90;;;;;;7389871;19;20198;-74
2023/04/06 00:16:26;;;;;;;9.33;5.77;;;6.90;99.90;;;;;;7391156;19;20139;-72
2023/04/06 00:18:52;;;;;;;7.70;4.97;;;6.90;99.90;;;;;;7390994;19;20221;-74
2023/04/06 00:21:17;;;;;;;7.47;4.50;;;6.00;99.90;;;;;;7387988;19;20142;-73
2023/04/06 00:23:43;;;;;;;6.63;4.33;;;6.30;99.90;;;;;;7388088;19;20207;-73
2023/04/06 00:26:10;;;;;;;7.17;4.73;;;6.50;99.90;;;;;;7391764;19;20171;-73
2023/04/06 00:28:37;;;;;;;4.93;4.13;;;6.40;99.90;;;;;;7385295;19;21453;-73
2023/04/06 00:31:03;;;;;;;8.23;4.30;;;6.40;99.90;;;;;;7385173;19;20155;-73
2023/04/06 00:33:29;;;;;;;6.10;4.10;;;6.60;99.90;;;;;;7389877;19;20130;-72
2023/04/06 00:35:58;;;;;;;7.70;4.60;;;6.70;99.90;;;;;;7389441;19;20202;-73
2023/04/06 00:38:23;;;;;;;5.97;4.53;;;6.70;99.90;;;;;;7388199;19;20150;-73
2023/04/06 00:40:53;;;;;;;7.33;4.67;;;6.80;99.90;;;;;;7387576;19;20604;-74
2023/04/06 00:43:18;;;;;;;9.10;4.27;;;6.60;99.90;;;;;;7385138;19;20209;-73
2023/04/06 00:45:44;;;;;;;5.20;3.70;;;6.60;99.90;;;;;;7386576;19;20617;-73
2023/04/06 00:48:10;;;;;;;6.53;4.13;;;6.60;99.90;;;;;;7389332;19;20585;-72
2023/04/06 00:50:36;;;;;;;7.67;4.93;;;6.60;99.90;;;;;;7387035;19;20206;-73
2023/04/06 00:53:02;;;;;;;7.73;4.80;;;6.60;99.90;;;;;;7390483;19;20139;-72
2023/04/06 00:55:28;;;;;;;7.33;4.67;;;6.70;99.90;;;;;;7389766;19;20603;-73
2023/04/06 00:57:56;;;;;;;8.20;5.00;;;6.60;99.90;;;;;;7387555;19;20176;-72
2023/04/06 01:00:22;;;;;;;5.97;4.20;;;6.70;99.90;;;;;;7389953;19;20317;-72
2023/04/06 01:02:48;;;;;;;11.40;4.57;;;6.70;99.90;;;;;;7386521;19;20150;-73
2023/04/06 01:05:14;;;;;;;5.60;3.80;;;6.70;99.90;;;;;;7388557;19;20210;-73
2023/04/06 01:07:40;;;;;;;6.03;4.30;;;6.70;99.90;;;;;;7379409;19;20234;-73
2023/04/06 01:10:06;;;;;;;7.23;4.40;;;6.60;99.90;;;;;;7387557;19;20142;-74
2023/04/06 01:12:32;;;;;;;9.53;4.73;;;6.60;99.90;;;;;;7388440;19;20131;-73
2023/04/06 01:14:58;;;;;;;5.00;3.60;;;6.60;99.90;;;;;;7387937;19;20150;-72
2023/04/06 01:17:24;;;;;;;5.47;4.37;;;6.60;99.90;;;;;;7388538;19;20233;-72
2023/04/06 01:19:51;;;;;;;5.60;4.40;;;6.60;99.90;;;;;;7384684;19;20188;-73
2023/04/06 01:22:17;;;;;;;8.73;5.00;;;6.70;99.90;;;;;;7389000;19;20141;-72
2023/04/06 01:24:44;;;;;;;7.90;4.80;;;6.70;99.90;;;;;;7388740;19;20155;-81
2023/04/06 01:27:10;;;;;;;6.33;4.47;;;6.60;99.90;;;;;;7386034;19;20147;-73
2023/04/06 01:29:36;;;;;;;8.60;5.03;;;6.60;99.90;;;;;;7388217;19;20150;-72
2023/04/06 01:32:01;;;;;;;8.20;5.07;;;6.60;99.90;;;;;;7385286;19;20155;-72
2023/04/06 01:34:27;;;;;;;13.33;5.37;;;6.60;99.90;;;;;;7389828;19;20139;-73
2023/04/06 01:36:53;;;;;;;6.87;4.90;;;6.60;99.90;;;;;;7385489;19;20730;-73
2023/04/06 01:39:20;;;;;;;8.87;5.10;;;6.60;99.90;;;;;;7385703;19;20611;-72
2023/04/06 01:41:47;;;;;;;6.47;5.03;;;6.50;99.90;;;;;;7384767;19;20595;-73
2023/04/06 01:44:16;;;;;;;7.50;5.07;;;6.50;99.90;;;;;;7384872;19;20134;-73
2023/04/06 01:46:41;;;;;;;9.70;5.13;;;6.60;99.90;;;;;;7387283;19;20148;-73
2023/04/06 01:49:07;;;;;;;8.80;5.60;;;6.50;99.90;;;;;;7386153;19;20134;-74
2023/04/06 01:51:33;;;;;;;8.00;5.00;;;6.50;99.90;;;;;;7387236;19;20135;-73
2023/04/06 01:53:59;;;;;;;6.80;4.83;;;6.50;99.90;;;;;;7387420;19;20134;-72
2023/04/06 01:56:25;;;;;;;6.87;4.63;;;6.60;99.90;;;;;;7385296;19;20135;-74
2023/04/06 01:58:51;;;;;;;6.10;4.97;;;6.50;99.90;;;;;;7387146;19;20134;-72
2023/04/06 02:01:17;;;;;;;10.10;4.97;;;6.50;99.90;;;;;;7387987;19;20142;-73
2023/04/06 02:03:43;;;;;;;5.80;4.30;;;6.40;99.90;;;;;;7389238;19;20191;-73
2023/04/06 02:06:12;;;;;;;6.83;4.63;;;6.40;99.90;;;;;;7387560;19;20141;-73
2023/04/06 02:08:37;;;;;;;6.23;4.23;;;6.40;99.90;;;;;;7386422;19;20143;-73
2023/04/06 02:11:03;;;;;;;8.60;5.07;;;6.40;99.90;;;;;;7380485;19;20487;-73
2023/04/06 02:13:29;;;;;;;7.60;4.50;;;6.40;99.90;;;;;;7384809;19;20625;-73
2023/04/06 02:15:55;;;;;;;7.17;4.90;;;6.30;99.90;;;;;;7386968;19;20142;-74
2023/04/06 02:18:22;;;;;;;8.40;5.50;;;6.20;99.90;;;;;;7385898;19;20141;-73
2023/04/06 02:20:48;;;;;;;8.10;4.43;;;6.10;99.90;;;;;;7386034;19;20142;-73
2023/04/06 02:23:13;;;;;;;9.13;5.27;;;6.20;99.90;;;;;;7385969;19;20135;-73
2023/04/06 02:25:40;;;;;;;6.47;4.70;;;6.20;99.90;;;;;;7383381;19;20254;-73
2023/04/06 02:28:05;;;;;;;6.80;5.10;;;6.20;99.90;;;;;;7386832;19;20147;-73
2023/04/06 02:30:32;;;;;;;9.97;5.20;;;6.20;99.90;;;;;;7384395;19;20169;-73
2023/04/06 02:33:00;;;;;;;8.33;5.63;;;6.00;99.90;;;;;;7386207;19;20147;-73
2023/04/06 02:35:27;;;;;;;7.60;5.77;;;5.90;99.90;;;;;;7385092;19;20222;-73
2023/04/06 02:37:53;;;;;;;8.70;5.77;;;5.80;99.90;;;;;;7385699;19;20150;-73
2023/04/06 02:40:18;;;;;;;7.10;5.30;;;5.90;99.90;;;;;;7384149;19;20142;-73
2023/04/06 02:42:44;;;;;;;10.67;5.63;;;5.90;99.90;;;;;;7385702;19;20154;-74
2023/04/06 02:45:10;;;;;;;10.83;5.47;;;5.80;99.90;;;;;;7391447;19;20183;-72
2023/04/06 02:47:36;;;;;;;8.83;5.83;;;5.80;99.90;;;;;;7391680;19;20619;-73
2023/04/06 02:50:02;;;;;;;10.27;5.30;;;5.70;99.90;;;;;;7393704;19;20163;-73
2023/04/06 02:52:27;;;;;;;9.40;5.60;;;5.60;99.90;;;;;;7391922;19;20146;-73
2023/04/06 02:54:53;;;;;;;9.97;5.30;;;5.50;99.90;;;;;;7393449;19;20139;-74
2023/04/06 02:57:19;;;;;;;7.97;5.33;;;5.60;99.90;;;;;;7393936;19;20179;-73
2023/04/06 02:59:45;;;;;;;6.77;5.23;;;5.60;99.90;;;;;;7392316;19;20166;-74
2023/04/06 03:02:10;;;;;;;7.80;5.23;;;5.60;99.90;;;;;;7387548;19;20777;-72
2023/04/06 03:04:36;;;;;;;10.00;5.80;;;5.40;99.90;;;;;;7392813;19;20146;-74
2023/04/06 03:07:02;;;;;;;9.37;5.00;;;5.30;99.90;;;;;;7393212;19;20131;-73
2023/04/06 03:09:28;;;;;;;8.50;5.93;;;5.40;99.90;;;;;;7392956;19;20135;-72
2023/04/06 03:11:54;;;;;;;7.80;5.43;;;5.50;99.90;;;;;;7391949;19;20143;-73
2023/04/06 03:14:21;;;;;;;8.97;5.73;;;5.60;99.90;;;;;;7394212;19;20218;-74
2023/04/06 03:16:50;;;;;;;10.77;6.40;;;5.50;99.90;;;;;;7393506;19;20159;-73
2023/04/06 03:19:16;;;;;;;10.27;5.80;;;5.40;99.90;;;;;;7392472;19;20135;-72
2023/04/06 03:21:42;;;;;;;7.20;5.20;;;5.20;99.90;;;;;;7389700;19;20265;-74
2023/04/06 03:24:08;;;;;;;10.83;5.30;;;5.10;99.90;;;;;;7392314;19;20207;-73
2023/04/06 03:26:34;;;;;;;9.90;5.77;;;5.40;99.90;;;;;;7391461;19;20174;-73
2023/04/06 03:29:00;;;;;;;7.37;5.07;;;5.50;99.90;;;;;;7394773;19;20519;-73
2023/04/06 03:31:26;;;;;;;11.83;6.50;;;5.40;99.90;;;;;;7391100;19;20160;-73
2023/04/06 03:33:55;;;;;;;11.60;6.33;;;5.60;99.90;;;;;;7393147;19;20139;-74
2023/04/06 03:36:20;;;;;;;9.87;6.23;;;5.60;99.90;;;;;;7390397;19;20126;-73
2023/04/06 03:38:47;;;;;;;6.80;5.50;;;5.50;99.90;;;;;;7392278;19;20135;-74
2023/04/06 03:41:13;;;;;;;8.47;5.90;;;5.60;99.90;;;;;;7389510;19;20154;-73
2023/04/06 03:43:38;;;;;;;6.80;5.17;;;5.40;99.90;;;;;;7390958;19;20199;-74
2023/04/06 03:46:04;;;;;;;7.93;5.53;;;5.40;99.90;;;;;;7391746;19;20131;-73
2023/04/06 03:48:30;;;;;;;8.77;5.40;;;5.10;99.90;;;;;;7390732;19;20148;-73
2023/04/06 03:50:56;;;;;;;9.57;6.03;;;5.10;99.90;;;;;;7390101;19;20210;-74
2023/04/06 03:53:22;;;;;;;9.27;5.00;;;5.30;99.90;;;;;;7390825;19;20178;-73
2023/04/06 03:55:47;;;;;;;8.93;5.93;;;5.50;99.90;;;;;;7389935;19;20130;-74
2023/04/06 03:58:13;;;;;;;7.60;5.13;;;5.50;99.90;;;;;;7392083;19;20145;-73
2023/04/06 04:00:39;;;;;;;7.83;5.07;;;5.60;99.90;;;;;;7388921;19;20145;-74
2023/04/06 04:03:05;;;;;;;7.70;5.47;;;5.60;99.90;;;;;;7391052;19;20131;-73
2023/04/06 04:05:30;;;;;;;11.20;5.83;;;5.60;99.90;;;;;;7389133;19;20139;-74
2023/04/06 04:07:56;;;;;;;9.30;5.60;;;5.30;99.90;;;;;;7391049;19;20137;-73
2023/04/06 04:10:22;;;;;;;12.07;5.40;;;5.10;99.90;;;;;;7391433;19;20145;-73
2023/04/06 04:12:48;;;;;;;7.07;4.97;;;5.40;99.90;;;;;;7389280;19;20131;-71
2023/04/06 04:15:14;;;;;;;7.10;4.80;;;5.50;99.90;;;;;;7390348;19;20146;-73
2023/04/06 04:17:40;;;;;;;9.57;5.27;;;5.50;99.90;;;;;;7392228;19;20141;-73
2023/04/06 04:20:06;;;;;;;5.93;4.47;;;5.50;99.90;;;;;;7389025;19;20130;-73
2023/04/06 04:22:32;;;;;;;7.30;5.00;;;5.50;99.90;;;;;;7389795;19;20134;-73
2023/04/06 04:24:58;;;;;;;6.47;4.80;;;5.30;99.90;;;;;;7388402;19;20487;-74
2023/04/06 04:27:24;;;;;;;7.90;4.57;;;4.90;99.90;;;;;;7389226;19;20142;-73
2023/04/06 04:29:50;;;;;;;6.90;4.93;;;4.80;99.90;;;;;;7387746;19;20143;-72
2023/04/06 04:32:16;;;;;;;8.23;6.00;;;5.20;99.90;;;;;;7390172;19;20146;-72
2023/04/06 04:34:42;;;;;;;8.87;6.07;;;5.30;99.90;;;;;;7387769;19;20134;-73
2023/04/06 04:37:07;;;;;;;9.30;6.40;;;5.40;99.90;;;;;;7391533;19;20134;-72
2023/04/06 04:39:33;;;;;;;7.87;5.40;;;5.30;99.90;;;;;;7387501;19;20135;-73
2023/04/06 04:41:59;;;;;;;9.20;5.77;;;5.20;99.90;;;;;;7385996;19;20521;-73
2023/04/06 04:44:25;;;;;;;8.40;5.93;;;5.10;99.90;;;;;;7386072;19;20138;-74
2023/04/06 04:46:56;;;;;;;8.33;5.43;;;5.20;99.90;;;;;;7389548;19;20167;-74
2023/04/06 04:49:22;;;;;;;7.93;5.23;;;5.20;99.90;;;;;;7389534;19;20169;-74
2023/04/06 04:51:48;;;;;;;9.67;5.30;;;5.10;99.90;;;;;;7388997;19;20131;-74
2023/04/06 04:54:13;;;;;;;10.93;5.43;;;5.00;99.90;;;;;;7388101;19;20154;-73
2023/04/06 04:56:39;;;;;;;8.33;5.20;;;5.20;99.90;;;;;;7388773;19;20158;-74
2023/04/06 04:59:05;;;;;;;9.77;5.43;;;5.30;99.90;;;;;;7384677;19;20146;-74
2023/04/06 05:01:31;;;;;;;10.03;5.73;;;5.40;99.90;;;;;;7388028;19;20133;-74
2023/04/06 05:03:57;;;;;;;8.80;5.37;;;5.50;99.90;;;;;;7386305;19;20145;-74
2023/04/06 05:06:22;;;;;;;10.50;5.77;;;5.30;99.90;;;;;;7385839;19;20143;-73
2023/04/06 05:08:49;;;;;;;10.50;6.90;;;5.30;99.90;;;;;;7386988;19;20214;-75
2023/04/06 05:11:15;;;;;;;10.50;6.10;;;5.40;99.90;;;;;;7385864;19;20180;-75
2023/04/06 05:13:41;;;;;;;12.70;6.50;;;5.10;99.90;;;;;;7383331;19;20146;-74
2023/04/06 05:16:07;;;;;;;10.30;6.20;;;5.20;99.90;;;;;;7380643;19;20222;-75
2023/04/06 05:18:33;;;;;;;9.20;5.87;;;5.30;99.90;;;;;;7386237;19;20147;-74
2023/04/06 05:20:59;;;;;;;9.17;6.20;;;5.50;99.90;;;;;;7384984;19;20154;-74
2023/04/06 05:23:25;;;;;;;14.17;6.63;;;5.40;99.90;;;;;;7387724;19;20186;-75
2023/04/06 05:25:51;;;;;;;11.50;6.93;;;5.60;99.90;;;;;;7384890;19;20698;-74
2023/04/06 05:28:16;;;;;;;10.17;7.03;;;5.50;99.90;;;;;;7386350;19;20587;-73
2023/04/06 05:30:44;;;;;;;11.40;7.07;;;5.50;99.90;;;;;;7386199;19;20482;-75
2023/04/06 05:33:10;;;;;;;14.90;7.50;;;5.50;99.90;;;;;;7383743;19;20144;-73
2023/04/06 05:35:36;;;;;;;9.43;6.27;;;5.50;99.90;;;;;;7387892;19;20582;-73
2023/04/06 05:38:02;;;;;;;11.07;6.50;;;5.50;99.90;;;;;;7387566;19;20205;-75
2023/04/06 05:40:28;;;;;;;12.03;6.70;;;5.40;99.90;;;;;;7381866;19;20507;-74
2023/04/06 05:42:54;;;;;;;11.03;6.70;;;5.30;99.90;;;;;;7384921;19;20157;-74
2023/04/06 05:45:20;;;;;;;10.70;6.80;;;5.20;99.90;;;;;;7384575;19;20149;-75
2023/04/06 05:47:46;;;;;;;11.97;7.07;;;5.30;99.90;;;;;;7383576;19;20206;-73
2023/04/06 05:50:13;;;;;;;10.43;6.97;;;5.30;99.90;;;;;;7385986;19;20139;-75
2023/04/06 05:52:42;;;;;;;9.53;6.50;;;5.30;99.90;;;;;;7381293;19;20253;-74
2023/04/06 05:55:09;;;;;;;11.20;7.23;;;5.30;99.90;;;;;;7386919;19;20156;-74
2023/04/06 05:57:35;;;;;;;10.43;7.07;;;5.40;99.90;;;;;;7385121;19;20154;-74
2023/04/06 06:00:03;;;;;;;13.47;6.83;;;5.40;99.90;;;;;;7386951;19;20186;-74
2023/04/06 06:02:31;;;;;;;11.33;7.20;;;5.50;99.90;;;;;;7386452;19;20138;-74
2023/04/06 06:04:57;;;;;;;14.10;7.60;;;5.60;99.90;;;;;;7386348;19;20201;-74
2023/04/06 06:07:23;;;;;;;13.53;6.87;;;5.60;99.90;;;;;;7388523;19;20194;-73
2023/04/06 06:09:49;;;;;;;14.03;7.60;;;5.60;99.90;;;;;;7389707;19;20460;-74
2023/04/06 06:12:16;;;;;;;12.33;7.57;;;5.60;99.90;;;;;;7384240;19;20142;-73
2023/04/06 06:14:41;;;;;;;13.63;6.87;;;5.70;99.90;;;;;;7385980;19;20169;-73
2023/04/06 06:17:08;;;;;;;13.80;7.30;;;5.80;99.90;;;;;;7387067;19;20592;-73
2023/04/06 06:19:33;;;;;;;11.70;7.27;;;6.00;99.90;;;;;;7391465;19;20176;-74
2023/04/06 06:22:02;;;;;;;13.17;6.83;;;6.00;99.90;;;;;;7391959;19;20126;-73
2023/04/06 06:24:28;;;;;;;12.83;7.33;;;6.00;99.90;;;;;;7394420;19;20167;-73
2023/04/06 06:26:54;;;;;;;11.37;7.40;;;6.00;99.90;;;;;;7393957;19;20137;-73
2023/04/06 06:29:19;;;;;;;13.10;7.73;;;5.90;99.90;;;;;;7396791;19;20200;-73
2023/04/06 06:31:45;;;;;;;13.77;7.60;;;5.90;99.90;;;;;;7392999;19;20150;-74
2023/04/06 06:34:12;;;;;;;10.97;7.00;;;5.90;99.90;;;;;;7394870;19;20135;-73
2023/04/06 06:36:41;;;;;;;11.33;7.80;;;5.80;99.90;;;;;;7388996;19;20572;-76
2023/04/06 06:39:07;;;;;;;15.53;7.17;;;5.90;99.90;;;;;;7388546;19;20135;-73
2023/04/06 06:41:32;;;;;;;12.03;7.30;;;5.90;99.90;;;;;;7390026;19;20233;-74
2023/04/06 06:43:58;;;;;;;12.17;7.00;;;6.00;99.90;;;;;;7393102;19;20158;-74
2023/04/06 06:46:24;;;;;;;14.47;8.80;;;5.90;99.90;;;;;;7392764;19;20609;-74
2023/04/06 06:48:50;;;;;;;12.13;8.47;;;6.10;99.90;;;;;;7393062;19;20306;-74
2023/04/06 06:51:18;;;;;;;15.33;6.90;;;6.00;99.90;;;;;;7389808;19;20134;-75
2023/04/06 06:53:44;;;;;;;12.23;6.83;;;6.10;99.90;;;;;;7392929;19;20131;-75
2023/04/06 06:56:10;;;;;;;8.60;6.70;;;6.10;99.90;;;;;;7394535;19;20146;-74
2023/04/06 06:58:36;;;;;;;11.57;6.97;;;6.10;99.90;;;;;;7392597;19;20507;-75
2023/04/06 07:01:01;;;;;;;9.23;6.07;;;6.20;99.90;;;;;;7387469;19;20150;-75
2023/04/06 07:03:27;;;;;;;12.07;7.10;;;6.20;99.90;;;;;;7388995;19;20162;-74
2023/04/06 07:05:53;;;;;;;11.30;7.30;;;6.20;99.90;;;;;;7388478;19;20615;-73
2023/04/06 07:08:21;;;;;;;11.87;6.90;;;6.30;99.90;;;;;;7390915;19;20148;-74
2023/04/06 07:10:47;;;;;;;9.13;6.73;;;6.40;99.90;;;;;;7392116;19;20146;-74
2023/04/06 07:13:20;;;;;;;8.93;6.50;;;6.50;99.90;;;;;;7391887;19;20139;-75
2023/04/06 07:15:46;;;;;;;11.40;6.73;;;6.50;99.90;;;;;;7391907;19;20157;-73
2023/04/06 07:18:12;;;;;;;9.17;6.33;;;6.60;99.90;;;;;;7391163;19;20123;-74
2023/04/06 07:20:37;;;;;;;9.53;6.80;;;6.80;99.90;;;;;;7391377;19;20131;-74
2023/04/06 07:23:05;;;;;;;10.07;7.10;;;6.90;99.90;;;;;;7387895;19;20505;-74
2023/04/06 07:25:31;;;;;;;11.57;6.90;;;6.90;99.90;;;;;;7388587;19;20484;-74
2023/04/06 07:27:57;;;;;;;12.77;6.77;;;7.00;99.90;;;;;;7388709;19;20250;-73
2023/04/06 07:30:26;;;;;;;9.07;6.30;;;7.10;99.90;;;;;;7383432;19;20718;-73
2023/04/06 07:32:52;;;;;;;11.00;7.07;;;7.10;99.90;;;;;;7392147;19;20146;-76
2023/04/06 07:35:17;;;;;;;10.80;7.23;;;7.20;99.90;;;;;;7390279;19;20602;-74
2023/04/06 07:37:43;;;;;;;13.47;7.57;;;7.30;99.90;;;;;;7388801;19;20157;-74
2023/04/06 07:40:09;;;;;;;13.00;7.63;;;7.30;99.90;;;;;;7386915;19;20213;-75
2023/04/06 07:42:35;;;;;;;11.23;7.90;;;7.30;99.90;;;;;;7392144;19;20138;-75
2023/04/06 07:45:01;;;;;;;11.67;7.27;;;7.40;99.90;;;;;;7389384;19;20278;-75
2023/04/06 07:47:27;;;;;;;9.73;6.83;;;7.50;99.90;;;;;;7392903;19;20600;-76
2023/04/06 07:49:58;;;;;;;8.80;6.37;;;7.70;99.90;;;;;;7392059;19;20210;-75
2023/04/06 07:52:24;;;;;;;11.10;6.67;;;7.90;99.90;;;;;;7394735;19;20175;-73
2023/04/06 07:54:50;;;;;;;10.57;7.00;;;8.10;99.90;;;;;;7389414;19;20154;-76
2023/04/06 07:57:16;;;;;;;10.02;6.95;;;8.40;99.90;;;;;;7389932;19;20376;-74
2023/04/06 07:59:41;;;;;;;11.03;7.60;;;8.90;99.90;;;;;;7393361;19;20595;-76
2023/04/06 08:02:07;;;;;;;10.87;7.07;;;9.40;99.90;;;;;;7390162;19;20234;-76
2023/04/06 08:04:33;;;;;;;12.13;7.40;;;9.90;99.90;;;;;;7395405;19;20154;-74
2023/04/06 08:06:59;;;;;;;9.53;7.17;;;10.40;99.90;;;;;;7392881;19;20130;-77
2023/04/06 08:09:25;;;;;;;12.00;7.80;;;10.80;99.90;;;;;;7403408;19;20414;-76
2023/04/06 08:11:51;;;;;;;8.33;6.87;;;11.10;99.90;;;;;;7390448;19;20217;-75
2023/04/06 08:14:16;;;;;;;11.90;7.23;;;11.00;99.90;;;;;;7391549;19;20146;-75
2023/04/06 08:16:42;;;;;;;10.83;6.97;;;11.00;99.90;;;;;;7392668;19;20134;-75
2023/04/06 08:19:09;;;;;;;12.00;8.13;;;10.80;99.90;;;;;;7393321;19;20379;-75
2023/04/06 08:21:35;;;;;;;11.17;7.63;;;10.60;99.90;;;;;;7388337;19;20572;-73
2023/04/06 08:24:02;;;;;;;10.53;6.97;;;10.50;99.90;;;;;;7389199;19;20154;-73
2023/04/06 08:26:28;;;;;;;12.67;7.50;;;10.60;99.90;;;;;;7390262;19;20499;-74
2023/04/06 08:28:54;;;;;;;13.03;7.70;;;10.70;99.90;;;;;;7389161;19;20157;-73
2023/04/06 08:31:20;;;;;;;16.43;7.10;;;10.80;99.90;;;;;;7387117;19;20142;-75
2023/04/06 08:33:45;;;;;;;11.97;7.73;;;10.70;99.90;;;;;;7390014;19;20153;-75
2023/04/06 08:36:13;;;;;;;12.03;7.73;;;10.60;99.90;;;;;;7390702;19;20139;-77
2023/04/06 08:38:40;;;;;;;14.00;7.07;;;10.60;99.90;;;;;;7387261;19;20142;-76
2023/04/06 08:41:13;;;;;;;12.43;7.37;;;10.70;99.90;;;;;;7385931;19;20182;-76
2023/04/06 08:44:00;;;;;;;12.97;7.07;;;10.80;99.90;;;;;;7387694;19;20226;-76
2023/04/06 08:46:30;;;;;;;14.57;7.67;;;10.80;99.90;;;;;;7389393;19;20451;-76
2023/04/06 08:48:58;;;;;;;12.13;6.80;;;10.80;99.80;;;;;;7388841;19;20221;-76
2023/04/06 08:51:26;;;;;;;9.33;6.47;;;10.90;99.80;;;;;;7388465;19;20178;-77
2023/04/06 08:53:54;;;;;;;12.83;8.30;;;11.00;99.50;;;;;;7388519;19;20186;-75
2023/04/06 08:56:21;;;;;;;8.50;6.53;;;11.00;99.40;;;;;;7387707;19;20214;-76
2023/04/06 08:58:48;;;;;;;11.60;7.93;;;11.10;99.50;;;;;;7389633;19;20145;-77
2023/04/06 09:01:16;;;;;;;11.53;6.97;;;11.30;98.90;;;;;;7387136;19;20135;-76
2023/04/06 09:03:43;;;;;;;10.57;6.57;;;11.40;98.80;;;;;;7390033;19;20135;-74
2023/04/06 09:06:11;;;;;;;10.77;7.40;;;11.50;98.10;;;;;;7388424;19;20181;-78
2023/04/06 09:08:39;;;;;;;8.13;6.50;;;11.70;97.60;;;;;;7387546;19;20130;-76
2023/04/06 09:11:05;;;;;;;11.10;6.37;;;11.80;97.00;;;;;;7387666;19;20486;-76
2023/04/06 09:13:31;;;;;;;7.20;5.63;;;11.70;96.40;;;;;;7384890;19;20147;-75
2023/04/06 09:16:06;;;;;;;6.83;5.57;;;11.60;93.60;;;;;;7388042;19;20130;-78
2023/04/06 09:18:32;;;;;;;9.03;5.90;;;11.80;94.40;;;;;;7388334;19;20145;-77
2023/04/06 09:21:06;;;;;;;9.57;6.00;;;11.90;94.10;;;;;;7387773;19;20793;-75
2023/04/06 09:23:32;;;;;;;7.93;6.30;;;11.90;94.30;;;;;;7385552;19;20130;-76
2023/04/06 09:26:08;;;;;;;9.43;6.17;;;12.00;93.70;;;;;;7383243;19;20151;-76
2023/04/06 09:28:51;;;;;;;8.97;6.07;;;11.90;93.70;;;;;;7381906;19;20148;-75
2023/04/06 09:31:32;;;;;;;10.37;6.97;;;11.80;93.60;;;;;;7389853;19;20488;-76
2023/04/06 09:34:00;;;;;;;12.63;6.60;;;11.90;93.40;;;;;;7387498;19;20506;-77
2023/04/06 09:36:32;;;;;;;9.70;6.20;;;12.00;93.00;;;;;;7387038;19;20868;-76
2023/04/06 09:39:00;;;;;;;10.20;5.60;;;12.00;91.70;;;;;;7389560;19;20504;-76
2023/04/06 09:41:31;;;;;;;9.33;5.60;;;11.90;91.80;;;;;;7385591;19;20170;-76
2023/04/06 09:44:07;;;;;;;9.30;6.43;;;12.00;91.40;;;;;;7384065;19;20943;-77
2023/04/06 09:46:38;;;;;;;9.47;6.63;;;12.10;90.90;;;;;;7387273;19;20394;-77
2023/04/06 09:49:05;;;;;;;10.10;5.33;;;12.10;90.30;;;;;;7389961;19;20134;-75
2023/04/06 09:51:37;;;;;;;7.50;5.67;;;12.10;88.80;;;;;;7384190;19;20787;-74
2023/04/06 09:54:04;;;;;;;9.05;5.13;;;12.10;88.30;;;;;;7384336;19;20595;-76
2023/04/06 09:56:46;;;;;;;8.37;5.33;;;12.30;87.00;;;;;;7387966;19;20138;-75
2023/04/06 09:59:38;;;;;;;8.67;5.07;;;12.20;85.90;;;;;;7386081;19;20143;-75
2023/04/06 10:02:06;;;;;;;8.27;5.13;;;12.10;86.20;;;;;;7388415;19;20556;-75
2023/04/06 10:04:43;;;;;;;7.90;5.37;;;12.10;84.70;;;;;;7390166;19;20163;-76
2023/04/06 10:07:11;;;;;;;6.63;5.17;;;12.10;85.30;;;;;;7390411;19;20134;-74
2023/04/06 10:09:38;;;;;;;6.83;5.13;;;12.20;83.70;;;;;;7382695;19;20138;-75
2023/04/06 10:12:07;;;;;;;8.73;5.37;;;12.50;84.00;;;;;;7374714;19;20138;-77
2023/04/06 10:14:37;;;;;;;9.60;5.67;;;12.70;82.20;;;;;;7388802;19;20131;-77
2023/04/06 10:17:06;;;;;;;7.57;4.97;;;12.50;81.60;;;;;;7387241;19;20170;-77
2023/04/06 10:20:08;;;;;;;5.40;4.27;;;12.40;82.70;;;;;;7381888;19;20817;-76
2023/04/06 10:22:56;;;;;;;7.87;5.50;;;12.50;82.70;;;;;;7389540;19;20606;-75
2023/04/06 10:25:30;;;;;;;9.07;5.05;;;12.70;81.50;;;;;;7384587;19;20143;-73
2023/04/06 10:28:00;;;;;;;6.80;4.73;;;12.80;80.30;;;;;;7382840;19;20135;-75
2023/04/06 10:30:27;;;;;;;8.67;5.27;;;12.90;81.00;;;;;;7389921;19;20151;-77
2023/04/06 10:32:53;;;;;;;8.07;5.05;;;13.00;78.90;;;;;;7386500;19;20150;-77
2023/04/06 10:35:19;;;;;;;6.10;4.55;;;12.90;78.80;;;;;;7386598;19;20147;-77
2023/04/06 10:38:04;;;;;;;9.63;4.40;;;12.80;79.20;;;;;;7383416;19;20164;-76
2023/04/06 10:40:31;;;;;;;6.30;4.70;;;12.90;79.20;;;;;;7384321;19;20147;-78
2023/04/06 10:43:12;;;;;;;7.30;5.43;;;13.00;78.30;;;;;;7386493;19;20142;-76
2023/04/06 10:45:39;;;;;;;7.93;4.68;;;13.10;77.20;;;;;;7384104;19;20517;-77
2023/04/06 10:48:18;;;;;;;6.72;5.03;;;13.00;77.10;;;;;;7385629;19;20149;-76
2023/04/06 10:50:49;;;;;;;7.68;4.70;;;13.00;77.00;;;;;;7389114;19;20158;-75
2023/04/06 10:53:23;;;;;;;8.82;4.70;;;13.00;76.30;;;;;;7388364;19;20217;-77
2023/04/06 10:55:50;;;;;;;7.32;5.13;;;13.00;76.80;;;;;;7382383;19;20161;-76
2023/04/06 10:58:16;;;;;;;6.90;5.03;;;13.10;76.40;;;;;;7384536;19;20403;-75
2023/04/06 11:00:47;;;;;;;6.40;4.40;;;13.10;75.30;;;;;;7380172;19;20155;-77
2023/04/06 11:03:13;;;;;;;5.00;4.00;;;13.10;76.00;;;;;;7382342;19;20616;-74
2023/04/06 11:05:44;;;;;;;8.05;5.43;;;13.20;83.80;;;;;;7387358;19;20282;-73
2023/04/06 11:08:10;;;;;;;7.10;4.70;;;13.50;77.20;;;;;;7395945;19;20143;-71
2023/04/06 11:10:36;;;;;;;6.72;4.90;;;13.60;75.50;;;;;;7391414;19;20161;-72
2023/04/06 11:13:02;;;;;;;6.18;4.53;;;13.40;75.10;;;;;;7390295;19;20553;-72
2023/04/06 11:15:35;;;;;;;6.00;4.55;;;13.40;74.90;;;;;;7391679;19;20170;-71
2023/04/06 11:18:04;;;;;;;8.15;4.95;;;13.40;75.70;;;;;;7394225;19;20139;-72
2023/04/06 11:20:30;;;;;;;5.47;4.05;;;13.40;75.00;;;;;;7392342;19;20633;-69
2023/04/06 11:22:58;;;;;;;6.93;5.50;;;13.30;79.40;;;;;;7392904;19;20142;-71
2023/04/06 11:25:25;;;;;;;6.15;4.38;;;13.20;80.40;;;;;;7388070;19;20151;-72
2023/04/06 11:27:54;;;;;;;6.85;4.60;;;13.50;77.60;;;;;;7391443;19;20245;-71
2023/04/06 11:30:20;;;;;;;7.55;5.32;;;13.60;77.20;;;;;;7391404;19;20137;-72
2023/04/06 11:32:46;;;;;;;6.07;4.43;;;13.70;79.20;;;;;;7390501;19;20178;-73
2023/04/06 11:35:20;;;;;;;9.27;4.63;;;13.70;80.30;;;;;;7389381;19;20143;-72
2023/04/06 11:37:46;;;;;;;7.85;4.72;;;13.60;80.30;;;;;;7391603;19;20154;-71
2023/04/06 11:40:12;;;;;;;7.13;4.82;;;13.70;81.80;;;;;;7388852;19;20265;-71
2023/04/06 11:42:37;;;;;;;6.10;4.60;;;14.00;75.90;;;;;;7390052;19;20130;-70
2023/04/06 11:45:04;;;;;;;5.82;4.35;;;14.30;72.40;;;;;;7387714;19;20265;-72
2023/04/06 11:47:36;;;;;;;5.95;4.45;;;14.30;72.20;;;;;;7388219;19;20177;-71
2023/04/06 11:50:13;;;;;;;5.70;4.25;;;14.40;71.30;;;;;;7384899;19;20150;-72
2023/04/06 11:52:40;;;;;;;8.05;4.60;;;14.30;70.80;;;;;;7389662;19;20134;-71
2023/04/06 11:55:15;;;;;;;6.90;3.92;;;14.10;70.20;;;;;;7389191;19;20138;-71
2023/04/06 11:57:42;;;;;;;6.90;4.78;;;14.00;70.70;;;;;;7387927;19;20229;-71
2023/04/06 12:00:12;;;;;;;8.27;4.32;;;13.80;78.00;;;;;;7390122;19;20199;-71
2023/04/06 12:02:39;;;;;;;7.55;4.85;;;13.80;78.30;;;;;;7387629;19;20150;-71
2023/04/06 12:05:06;;;;;;;6.97;4.63;;;14.20;71.30;;;;;;7391730;19;20138;-70
2023/04/06 12:07:32;;;;;;;10.43;4.35;;;14.10;74.00;;;;;;7390621;19;20142;-72
2023/04/06 12:09:59;;;;;;;6.63;4.45;;;14.20;71.10;;;;;;7389488;19;20134;-70
2023/04/06 12:12:25;;;;;;;7.28;4.57;;;14.30;70.80;;;;;;7387407;19;20236;-70
2023/04/06 12:14:51;;;;;;;7.25;3.97;;;14.00;70.20;;;;;;7390727;19;20163;-71
2023/04/06 12:17:18;;;;;;;6.28;4.53;;;14.20;70.40;;;;;;7388565;19;20135;-72
2023/04/06 12:19:43;;;;;;;5.73;3.97;;;14.30;70.40;;;;;;7386479;19;20718;-71
2023/04/06 12:22:09;;;;;;;5.22;4.15;;;14.10;75.40;;;;;;7388626;19;20134;-71
2023/04/06 12:24:35;;;;;;;5.78;4.43;;;14.40;70.60;;;;;;7388202;19;20905;-72
2023/04/06 12:27:01;;;;;;;5.72;3.80;;;14.40;71.80;;;;;;7389634;19;20142;-72
2023/04/06 12:29:27;;;;;;;5.82;4.15;;;14.40;72.90;;;;;;7389649;19;20263;-72
2023/04/06 12:31:52;;;;;;;5.88;3.58;;;14.30;72.90;;;;;;7390717;19;20141;-72
2023/04/06 12:34:18;;;;;;;7.60;4.47;;;14.40;72.90;;;;;;7388361;19;20587;-72
2023/04/06 12:36:44;;;;;;;6.47;4.28;;;14.80;70.10;;;;;;7388545;19;20138;-71
2023/04/06 12:39:11;;;;;;;5.47;3.60;;;14.90;68.70;;;;;;7392141;19;20135;-71
2023/04/06 12:41:37;;;;;;;4.90;3.60;;;14.90;67.80;;;;;;7385732;19;20150;-71
2023/04/06 12:44:03;;;;;;;5.80;4.10;;;14.90;66.50;;;;;;7388488;19;20130;-71
2023/04/06 12:46:32;;;;;;;6.88;4.53;;;14.50;70.60;;;;;;7388741;19;20162;-72
2023/04/06 12:48:59;;;;;;;6.13;3.95;;;14.40;72.50;;;;;;7388449;19;20496;-72
2023/04/06 12:51:27;;;;;;;6.15;4.22;;;14.50;72.60;;;;;;7385581;19;20154;-71